createdAt,value
2017-09-14T00:01:45.849Z,90.00
2017-09-14T00:04:12.768Z,90.00
2017-09-14T00:06:39.672Z,89.60
2017-09-14T00:09:06.517Z,89.50
2017-09-14T00:11:33.467Z,89.30
2017-09-14T00:14:00.315Z,89.30
2017-09-14T00:16:27.181Z,89.60
2017-09-14T00:18:54.839Z,89.60
2017-09-14T00:21:21.772Z,89.60
2017-09-14T00:23:48.621Z,89.70
2017-09-14T00:26:15.504Z,90.00
2017-09-14T00:28:42.422Z,89.80
2017-09-14T00:31:10.028Z,89.30
2017-09-14T00:33:36.967Z,89.20
2017-09-14T00:36:03.916Z,89.00
2017-09-14T00:38:30.977Z,89.50
2017-09-14T00:40:57.851Z,90.20
2017-09-14T00:43:24.807Z,90.40
2017-09-14T00:45:51.739Z,90.00
2017-09-14T00:48:18.605Z,89.60
2017-09-14T00:50:45.564Z,89.70
2017-09-14T00:53:12.598Z,89.40
2017-09-14T00:55:39.475Z,88.50
2017-09-14T00:58:06.453Z,88.30
2017-09-14T01:00:33.372Z,88.00
2017-09-14T01:03:00.220Z,88.10
2017-09-14T01:05:27.188Z,89.00
2017-09-14T01:07:54.109Z,88.80
2017-09-14T01:10:21.107Z,89.00
2017-09-14T01:12:47.988Z,89.40
2017-09-14T01:15:14.999Z,89.00
2017-09-14T01:17:41.980Z,89.30
2017-09-14T01:20:08.956Z,89.20
2017-09-14T01:22:35.996Z,88.90
2017-09-14T01:25:02.933Z,88.90
2017-09-14T01:27:29.911Z,88.80
2017-09-14T01:29:56.856Z,89.00
2017-09-14T01:32:23.823Z,89.00
2017-09-14T01:34:50.904Z,89.10
2017-09-14T01:37:17.825Z,89.90
2017-09-14T01:39:44.816Z,89.90
2017-09-14T01:42:11.809Z,90.10
2017-09-14T01:44:38.816Z,90.20
2017-09-14T01:47:05.716Z,90.10
2017-09-14T01:49:32.579Z,90.10
2017-09-14T01:52:00.224Z,89.90
2017-09-14T01:54:27.911Z,90.20
2017-09-14T01:56:54.763Z,89.80
2017-09-14T01:59:21.695Z,89.50
2017-09-14T02:01:49.287Z,89.90
2017-09-14T02:04:16.227Z,89.80
2017-09-14T02:06:43.164Z,89.60
2017-09-14T02:09:10.080Z,89.60
2017-09-14T02:11:37.701Z,89.40
2017-09-14T02:14:04.625Z,89.40
2017-09-14T02:16:31.547Z,89.30
2017-09-14T02:18:58.407Z,89.10
2017-09-14T02:21:25.418Z,89.10
2017-09-14T02:23:52.291Z,88.10
2017-09-14T02:26:19.140Z,87.90
2017-09-14T02:28:46.071Z,88.70
2017-09-14T02:31:13.017Z,90.00
2017-09-14T02:33:40.612Z,90.10
2017-09-14T02:36:07.553Z,90.10
2017-09-14T02:38:34.417Z,90.00
2017-09-14T02:41:01.297Z,90.00
2017-09-14T02:43:28.238Z,90.00
2017-09-14T02:45:55.089Z,90.10
2017-09-14T02:48:21.961Z,90.00
2017-09-14T02:50:48.870Z,89.80
2017-09-14T02:53:15.821Z,89.80
2017-09-14T02:55:42.688Z,89.70
2017-09-14T02:58:09.572Z,90.10
2017-09-14T03:00:36.479Z,90.20
2017-09-14T03:03:04.063Z,90.30
2017-09-14T03:05:31.060Z,90.30
2017-09-14T03:07:57.900Z,90.50
2017-09-14T03:10:24.844Z,90.60
2017-09-14T03:12:51.694Z,90.30
2017-09-14T03:15:18.624Z,90.20
2017-09-14T03:17:45.494Z,90.20
2017-09-14T03:20:12.434Z,90.10
2017-09-14T03:22:39.296Z,90.30
2017-09-14T03:25:06.167Z,90.40
2017-09-14T03:27:33.071Z,90.10
2017-09-14T03:29:59.979Z,90.60
2017-09-14T03:32:26.958Z,90.70
2017-09-14T03:34:53.890Z,90.60
2017-09-14T03:37:20.840Z,90.50
2017-09-14T03:39:47.680Z,90.50
2017-09-14T03:42:14.566Z,90.40
2017-09-14T03:44:41.496Z,90.20
2017-09-14T03:47:09.118Z,89.20
2017-09-14T03:49:36.056Z,89.20
2017-09-14T03:52:02.924Z,88.90
2017-09-14T03:54:29.782Z,87.90
2017-09-14T03:56:56.809Z,86.90
2017-09-14T03:59:23.735Z,86.90
2017-09-14T04:01:50.720Z,86.60
2017-09-14T04:04:17.588Z,85.60
2017-09-14T04:06:44.518Z,85.90
2017-09-14T04:09:11.452Z,85.50
2017-09-14T04:11:38.314Z,85.80
2017-09-14T04:14:05.183Z,85.60
2017-09-14T04:16:32.116Z,85.60
2017-09-14T04:18:58.983Z,85.90
2017-09-14T04:21:25.832Z,85.60
2017-09-14T04:23:58.197Z,85.80
2017-09-14T04:26:29.917Z,85.90
2017-09-14T04:28:57.780Z,86.50
2017-09-14T04:31:24.732Z,86.40
2017-09-14T04:33:54.509Z,86.80
2017-09-14T04:36:24.610Z,86.90
2017-09-14T04:38:53.354Z,86.90
2017-09-14T04:41:24.057Z,86.80
2017-09-14T04:43:53.441Z,86.70
2017-09-14T04:46:22.820Z,87.20
2017-09-14T04:48:50.520Z,87.80
2017-09-14T04:51:17.457Z,87.80
2017-09-14T04:53:44.368Z,87.40
2017-09-14T04:56:12.067Z,87.70
2017-09-14T04:58:38.995Z,87.60
2017-09-14T05:01:05.867Z,87.40
2017-09-14T05:03:32.788Z,87.60
2017-09-14T05:05:59.671Z,87.30
2017-09-14T05:08:26.588Z,87.00
2017-09-14T05:11:06.380Z,87.10
2017-09-14T05:13:34.570Z,87.70
2017-09-14T05:16:02.265Z,87.10
2017-09-14T05:18:29.132Z,87.00
2017-09-14T05:20:56.046Z,87.00
2017-09-14T05:23:23.112Z,86.80
2017-09-14T05:25:50.657Z,87.30
2017-09-14T05:28:17.580Z,86.60
2017-09-14T05:30:44.518Z,86.40
2017-09-14T05:33:11.480Z,86.00
2017-09-14T05:35:38.333Z,85.60
2017-09-14T05:38:05.189Z,85.80
2017-09-14T05:40:32.167Z,85.90
2017-09-14T05:42:59.020Z,86.00
2017-09-14T05:45:25.938Z,86.40
2017-09-14T05:47:52.856Z,86.40
2017-09-14T05:50:20.535Z,85.80
2017-09-14T05:52:47.455Z,85.80
2017-09-14T05:55:14.314Z,86.20
2017-09-14T05:57:41.249Z,85.40
2017-09-14T06:00:08.132Z,86.90
2017-09-14T06:02:35.066Z,86.10
2017-09-14T06:05:01.925Z,85.40
2017-09-14T06:07:28.905Z,85.60
2017-09-14T06:09:55.796Z,85.20
2017-09-14T06:12:22.728Z,85.50
2017-09-14T06:14:49.763Z,85.60
2017-09-14T06:17:17.368Z,86.80
2017-09-14T06:19:44.307Z,86.00
2017-09-14T06:22:11.346Z,85.70
2017-09-14T06:24:38.200Z,85.70
2017-09-14T06:27:05.120Z,85.60
2017-09-14T06:29:34.576Z,85.90
2017-09-14T06:32:01.624Z,86.00
2017-09-14T06:34:28.652Z,85.70
2017-09-14T06:36:55.516Z,85.90
2017-09-14T06:39:22.408Z,86.20
2017-09-14T06:41:49.381Z,85.80
2017-09-14T06:44:16.445Z,85.70
2017-09-14T06:46:43.428Z,86.30
2017-09-14T06:49:10.319Z,86.20
2017-09-14T06:51:39.858Z,86.60
2017-09-14T06:54:08.343Z,86.60
2017-09-14T06:56:35.384Z,86.40
2017-09-14T06:59:02.320Z,86.40
2017-09-14T07:01:29.269Z,86.70
2017-09-14T07:03:56.276Z,86.70
2017-09-14T07:06:23.173Z,86.70
2017-09-14T07:08:50.108Z,87.20
2017-09-14T07:11:16.980Z,87.00
2017-09-14T07:13:43.876Z,87.20
2017-09-14T07:16:10.815Z,87.20
2017-09-14T07:18:37.689Z,87.50
2017-09-14T07:21:04.741Z,87.60
2017-09-14T07:23:31.618Z,87.30
2017-09-14T07:25:58.479Z,87.30
2017-09-14T07:28:26.173Z,87.80
2017-09-14T07:30:53.051Z,87.20
2017-09-14T07:33:19.937Z,87.40
2017-09-14T07:35:47.689Z,87.10
2017-09-14T07:38:14.696Z,87.10
2017-09-14T07:40:41.658Z,87.20
2017-09-14T07:43:08.539Z,87.10
2017-09-14T07:45:36.310Z,87.10
2017-09-14T07:48:03.921Z,87.10
2017-09-14T07:50:30.806Z,87.10
2017-09-14T07:52:57.765Z,87.40
2017-09-14T07:55:24.630Z,87.30
2017-09-14T07:57:51.559Z,87.70
2017-09-14T08:00:18.481Z,87.90
2017-09-14T08:02:45.464Z,88.20
2017-09-14T08:05:12.349Z,88.30
2017-09-14T08:07:39.294Z,88.10
2017-09-14T08:10:06.248Z,88.40
2017-09-14T08:12:33.177Z,89.00
2017-09-14T08:15:00.138Z,88.60
2017-09-14T08:17:26.996Z,88.70
2017-09-14T08:19:54.009Z,88.40
2017-09-14T08:22:20.993Z,88.70
2017-09-14T08:24:47.871Z,88.60
2017-09-14T08:27:15.562Z,89.00
2017-09-14T08:29:42.505Z,88.90
2017-09-14T08:32:09.458Z,88.70
2017-09-14T08:34:36.385Z,88.40
2017-09-14T08:37:03.341Z,88.60
2017-09-14T08:39:30.214Z,88.30
2017-09-14T08:41:57.114Z,88.10
2017-09-14T08:44:24.056Z,88.60
2017-09-14T08:46:50.943Z,88.50
2017-09-14T08:49:17.860Z,88.40
2017-09-14T08:51:44.853Z,89.00
2017-09-14T08:54:11.721Z,88.90
2017-09-14T08:56:38.660Z,88.70
2017-09-14T08:59:05.560Z,88.90
2017-09-14T09:01:32.428Z,88.60
2017-09-14T09:03:59.373Z,88.20
2017-09-14T09:06:26.308Z,88.10
2017-09-14T09:08:53.176Z,88.10
2017-09-14T09:11:20.153Z,88.40
2017-09-14T09:13:47.093Z,88.60
2017-09-14T09:16:13.970Z,88.40
2017-09-14T09:18:40.832Z,88.60
2017-09-14T09:21:07.758Z,88.80
2017-09-14T09:23:34.757Z,88.50
2017-09-14T09:26:01.914Z,88.50
2017-09-14T09:28:28.945Z,88.20
2017-09-14T09:30:55.813Z,87.90
2017-09-14T09:33:23.517Z,88.60
2017-09-14T09:35:50.382Z,88.00
2017-09-14T09:38:17.281Z,88.70
2017-09-14T09:40:45.045Z,88.60
2017-09-14T09:43:11.937Z,88.60
2017-09-14T09:45:38.818Z,89.00
2017-09-14T09:48:05.927Z,88.40
2017-09-14T09:50:33.116Z,87.40
2017-09-14T09:53:00.105Z,87.90
2017-09-14T09:55:27.089Z,87.40
2017-09-14T09:57:53.964Z,86.80
2017-09-14T10:00:20.908Z,86.50
2017-09-14T10:02:48.616Z,86.80
2017-09-14T10:05:15.492Z,86.70
2017-09-14T10:07:42.367Z,85.90
2017-09-14T10:10:10.046Z,87.00
2017-09-14T10:12:36.901Z,86.70
2017-09-14T10:15:03.821Z,87.30
2017-09-14T10:17:31.508Z,86.90
2017-09-14T10:19:58.429Z,86.80
2017-09-14T10:22:25.316Z,87.40
2017-09-14T10:24:52.209Z,87.10
2017-09-14T10:27:19.227Z,87.00
2017-09-14T10:29:46.135Z,87.30
2017-09-14T10:32:12.988Z,87.60
2017-09-14T10:34:39.937Z,86.60
2017-09-14T10:37:06.810Z,87.00
2017-09-14T10:39:33.773Z,87.00
2017-09-14T10:42:00.637Z,86.60
2017-09-14T10:44:27.523Z,86.30
2017-09-14T10:46:54.457Z,85.90
2017-09-14T10:49:21.344Z,84.20
2017-09-14T10:51:48.245Z,83.20
2017-09-14T10:54:15.197Z,82.30
2017-09-14T10:56:42.074Z,80.60
2017-09-14T10:59:09.091Z,79.50
2017-09-14T11:01:36.039Z,77.80
2017-09-14T11:04:02.949Z,78.90
2017-09-14T11:09:02.060Z,77.80
2017-09-14T11:11:29.004Z,77.90
2017-09-14T11:13:56.064Z,79.00
2017-09-14T11:16:23.757Z,80.00
2017-09-14T11:18:50.729Z,79.90
2017-09-14T11:21:17.606Z,79.00
2017-09-14T11:23:44.533Z,78.50
2017-09-14T11:26:11.421Z,78.00
2017-09-14T11:28:39.176Z,76.40
2017-09-14T11:31:06.133Z,76.40
2017-09-14T11:33:33.784Z,78.60
2017-09-14T11:36:03.313Z,77.90
2017-09-14T11:38:30.355Z,77.90
2017-09-14T11:40:57.308Z,78.80
2017-09-14T11:43:28.567Z,79.80
2017-09-14T11:46:08.933Z,80.00
2017-09-14T11:48:36.656Z,80.60
2017-09-14T11:51:03.704Z,79.60
2017-09-14T11:53:30.577Z,77.30
2017-09-14T11:55:57.536Z,77.70
2017-09-14T11:58:24.414Z,76.70
2017-09-14T12:00:51.292Z,75.40
2017-09-14T12:03:18.238Z,75.00
2017-09-14T12:05:46.257Z,74.90
2017-09-14T12:08:14.004Z,72.70
2017-09-14T12:10:40.889Z,72.70
2017-09-14T12:13:07.851Z,71.70
2017-09-14T12:15:34.800Z,71.60
2017-09-14T12:18:01.678Z,72.80
2017-09-14T12:20:29.061Z,71.90
2017-09-14T12:22:55.949Z,70.70
2017-09-14T12:25:22.896Z,71.40
2017-09-14T12:27:49.748Z,71.80
2017-09-14T12:30:18.425Z,74.80
2017-09-14T12:32:46.864Z,68.30
2017-09-14T12:35:13.733Z,68.30
2017-09-14T12:37:40.613Z,69.30
2017-09-14T12:40:08.369Z,72.60
2017-09-14T12:42:35.338Z,72.40
2017-09-14T12:45:02.225Z,73.90
2017-09-14T12:47:29.585Z,70.30
2017-09-14T12:49:58.784Z,72.20
2017-09-14T12:52:25.857Z,72.50
2017-09-14T12:54:53.249Z,73.20
2017-09-14T12:57:20.115Z,74.50
2017-09-14T12:59:47.088Z,74.80
2017-09-14T13:02:13.961Z,74.40
2017-09-14T13:04:44.934Z,74.80
2017-09-14T13:07:13.638Z,75.30
2017-09-14T13:09:43.154Z,75.40
2017-09-14T13:12:10.116Z,74.50
2017-09-14T13:14:37.065Z,75.20
2017-09-14T13:17:04.099Z,74.70
2017-09-14T13:19:31.196Z,75.00
2017-09-14T13:21:58.193Z,74.40
2017-09-14T13:24:25.156Z,75.30
2017-09-14T13:26:52.040Z,73.90
2017-09-14T13:29:18.932Z,74.50
2017-09-14T13:31:46.642Z,75.10
2017-09-14T13:34:16.460Z,74.00
2017-09-14T13:36:44.143Z,73.10
2017-09-14T13:39:11.073Z,73.20
2017-09-14T13:41:38.773Z,72.90
2017-09-14T13:44:05.780Z,73.60
2017-09-14T13:46:33.545Z,73.00
2017-09-14T13:49:01.237Z,73.20
2017-09-14T13:51:28.241Z,73.20
2017-09-14T13:53:55.866Z,72.80
2017-09-14T13:56:22.817Z,72.80
2017-09-14T13:58:49.711Z,73.70
2017-09-14T14:01:16.737Z,73.50
2017-09-14T14:03:44.437Z,73.50
2017-09-14T14:06:11.385Z,73.40
2017-09-14T14:08:38.401Z,72.50
2017-09-14T14:11:06.126Z,71.60
2017-09-14T14:13:33.021Z,71.60
2017-09-14T14:16:00.750Z,71.20
2017-09-14T14:18:27.696Z,71.20
2017-09-14T14:20:55.065Z,70.90
2017-09-14T14:23:22.001Z,70.90
2017-09-14T14:25:51.121Z,70.50
2017-09-14T14:28:18.238Z,70.00
2017-09-14T14:30:47.160Z,70.30
2017-09-14T14:33:16.942Z,70.10
2017-09-14T14:35:49.926Z,69.40
2017-09-14T14:38:17.222Z,70.00
2017-09-14T14:40:47.975Z,69.90
2017-09-14T14:43:15.123Z,69.60
2017-09-14T14:45:45.377Z,69.50
2017-09-14T14:48:12.439Z,68.20
2017-09-14T14:50:42.768Z,67.80
2017-09-14T14:53:09.906Z,67.90
2017-09-14T14:55:38.862Z,68.20
2017-09-14T14:58:07.955Z,67.10
2017-09-14T15:00:34.925Z,67.40
2017-09-14T15:03:02.810Z,67.30
2017-09-14T15:05:29.830Z,68.00
2017-09-14T15:07:58.901Z,67.30
2017-09-14T15:10:26.734Z,67.60
2017-09-14T15:12:53.809Z,67.50
2017-09-14T15:15:20.805Z,67.50
2017-09-14T15:17:49.268Z,67.80
2017-09-14T15:20:16.305Z,67.40
2017-09-14T15:22:43.271Z,67.10
2017-09-14T15:25:10.275Z,66.60
2017-09-14T15:27:37.241Z,66.80
2017-09-14T15:30:06.486Z,66.00
2017-09-14T15:32:38.966Z,65.00
2017-09-14T15:35:06.014Z,64.10
2017-09-14T15:37:36.092Z,64.90
2017-09-14T15:40:09.692Z,64.80
2017-09-14T15:42:45.200Z,67.10
2017-09-14T15:45:32.144Z,65.20
2017-09-14T15:48:02.430Z,65.10
2017-09-14T15:50:35.486Z,65.10
2017-09-14T15:53:16.255Z,64.90
2017-09-14T15:55:55.914Z,64.80
2017-09-14T15:58:38.022Z,64.70
2017-09-14T16:01:20.099Z,64.50
2017-09-14T16:06:45.712Z,65.10
2017-09-14T16:09:13.664Z,64.70
2017-09-14T16:11:40.541Z,64.70
2017-09-14T16:14:08.253Z,64.30
2017-09-14T16:16:35.253Z,64.30
2017-09-14T16:19:05.079Z,64.50
2017-09-14T16:21:33.952Z,64.60
2017-09-14T16:24:00.920Z,63.50
2017-09-14T16:26:33.388Z,63.30
2017-09-14T16:29:04.926Z,63.30
2017-09-14T16:31:39.430Z,63.30
2017-09-14T16:34:18.997Z,63.20
2017-09-14T16:36:58.606Z,63.30
2017-09-14T16:39:36.542Z,63.20
2017-09-14T16:42:15.184Z,64.00
2017-09-14T16:44:50.237Z,63.70
2017-09-14T16:47:30.689Z,63.90
2017-09-14T16:50:07.157Z,63.30
2017-09-14T16:52:47.559Z,64.50
2017-09-14T16:55:25.878Z,64.50
2017-09-14T16:57:54.046Z,64.40
2017-09-14T17:00:21.014Z,64.20
2017-09-14T17:02:47.981Z,64.20
2017-09-14T17:05:15.624Z,64.30
2017-09-14T17:07:42.588Z,64.20
2017-09-14T17:10:10.215Z,64.60
2017-09-14T17:12:37.175Z,64.50
2017-09-14T17:15:05.276Z,64.60
2017-09-14T17:17:32.149Z,64.70
2017-09-14T17:19:59.092Z,67.00
2017-09-14T17:22:26.030Z,67.40
2017-09-14T17:24:52.926Z,69.40
2017-09-14T17:27:19.821Z,71.00
2017-09-14T17:29:46.823Z,72.50
2017-09-14T17:32:13.788Z,74.10
2017-09-14T17:34:41.465Z,76.30
2017-09-14T17:37:09.087Z,78.20
2017-09-14T17:39:36.123Z,78.20
2017-09-14T17:42:03.081Z,78.50
2017-09-14T17:44:29.963Z,78.40
2017-09-14T17:46:57.623Z,79.30
2017-09-14T17:49:25.288Z,79.20
2017-09-14T17:51:52.221Z,79.20
2017-09-14T17:54:19.134Z,80.00
2017-09-14T17:56:46.017Z,79.80
2017-09-14T17:59:14.738Z,79.90
2017-09-14T18:01:41.681Z,80.50
2017-09-14T18:04:08.634Z,79.80
2017-09-14T18:06:35.486Z,79.70
2017-09-14T18:09:02.431Z,79.90
2017-09-14T18:11:29.397Z,79.60
2017-09-14T18:13:56.276Z,80.00
2017-09-14T18:16:23.139Z,80.00
2017-09-14T18:18:50.114Z,79.90
2017-09-14T18:21:17.205Z,80.60
2017-09-14T18:23:44.100Z,80.30
2017-09-14T18:26:11.064Z,79.90
2017-09-14T18:28:38.028Z,80.60
2017-09-14T18:31:04.908Z,79.20
2017-09-14T18:33:32.605Z,77.40
2017-09-14T18:35:59.544Z,77.40
2017-09-14T18:38:26.497Z,77.50
2017-09-14T18:40:53.373Z,78.30
2017-09-14T18:43:20.245Z,78.70
2017-09-14T18:45:47.281Z,78.70
2017-09-14T18:48:14.251Z,77.90
2017-09-14T18:50:41.900Z,78.10
2017-09-14T18:53:08.834Z,78.10
2017-09-14T18:55:35.789Z,78.50
2017-09-14T18:58:02.640Z,77.90
2017-09-14T19:00:29.599Z,78.90
2017-09-14T19:02:56.477Z,78.80
2017-09-14T19:05:23.434Z,79.00
2017-09-14T19:07:50.421Z,79.00
2017-09-14T19:10:17.538Z,79.10
2017-09-14T19:12:44.480Z,79.20
2017-09-14T19:15:11.416Z,79.30
2017-09-14T19:17:38.296Z,79.80
2017-09-14T19:20:05.239Z,79.50
2017-09-14T19:22:32.096Z,79.50
2017-09-14T19:24:59.068Z,79.40
2017-09-14T19:27:25.984Z,79.70
2017-09-14T19:29:52.932Z,80.10
2017-09-14T19:32:19.977Z,80.20
2017-09-14T19:34:46.845Z,80.50
2017-09-14T19:37:14.536Z,80.80
2017-09-14T19:39:41.478Z,80.80
2017-09-14T19:42:08.540Z,81.30
2017-09-14T19:44:35.500Z,81.60
2017-09-14T19:47:02.352Z,81.80
2017-09-14T19:49:29.301Z,82.10
2017-09-14T19:51:56.191Z,82.50
2017-09-14T19:54:23.863Z,82.70
2017-09-14T19:56:50.737Z,82.60
2017-09-14T19:59:17.672Z,82.60
2017-09-14T20:01:44.601Z,83.40
2017-09-14T20:04:11.581Z,83.30
2017-09-14T20:06:38.475Z,83.80
2017-09-14T20:09:06.117Z,83.80
2017-09-14T20:11:33.157Z,83.70
2017-09-14T20:14:00.063Z,83.80
2017-09-14T20:16:27.041Z,83.70
2017-09-14T20:18:53.950Z,83.80
2017-09-14T20:21:20.918Z,84.00
2017-09-14T20:23:47.853Z,83.60
2017-09-14T20:26:14.757Z,83.50
2017-09-14T20:28:41.667Z,84.00
2017-09-14T20:31:08.608Z,84.00
2017-09-14T20:33:35.488Z,84.00
2017-09-14T20:36:02.448Z,83.50
2017-09-14T20:38:30.492Z,83.30
2017-09-14T20:40:57.500Z,83.40
2017-09-14T20:43:26.941Z,83.40
2017-09-14T20:46:01.355Z,83.40
2017-09-14T20:48:32.084Z,82.10
2017-09-14T20:50:59.199Z,82.50
2017-09-14T20:53:29.676Z,83.00
2017-09-14T20:55:56.737Z,82.90
2017-09-14T20:58:24.723Z,82.40
2017-09-14T21:00:53.205Z,82.80
2017-09-14T21:03:20.301Z,82.70
2017-09-14T21:05:47.249Z,82.90
2017-09-14T21:08:14.112Z,82.80
2017-09-14T21:10:40.983Z,82.60
2017-09-14T21:13:09.196Z,82.80
2017-09-14T21:15:40.898Z,82.70
2017-09-14T21:18:09.192Z,82.70
2017-09-14T21:20:41.489Z,83.10
2017-09-14T21:23:11.721Z,83.10
2017-09-14T21:25:43.961Z,83.30
2017-09-14T21:28:12.628Z,83.30
2017-09-14T21:30:44.149Z,83.40
2017-09-14T21:33:14.706Z,83.60
2017-09-14T21:35:42.432Z,83.70
2017-09-14T21:38:09.580Z,83.60
2017-09-14T21:40:38.177Z,83.80
2017-09-14T21:43:09.166Z,83.40
2017-09-14T21:45:39.002Z,83.50
2017-09-14T21:48:07.529Z,83.40
2017-09-14T21:50:34.540Z,83.10
2017-09-14T21:53:03.273Z,83.50
2017-09-14T21:55:41.508Z,83.50
2017-09-14T21:58:08.418Z,83.30
2017-09-14T22:00:36.748Z,83.50
2017-09-14T22:03:03.683Z,83.20
2017-09-14T22:05:30.536Z,83.70
2017-09-14T22:08:06.458Z,83.60
2017-09-14T22:10:41.933Z,82.80
2017-09-14T22:13:17.993Z,83.20
2017-09-14T22:15:51.275Z,83.40
2017-09-14T22:18:31.351Z,83.20
2017-09-14T22:20:59.048Z,83.50
2017-09-14T22:23:25.920Z,83.50
2017-09-14T22:25:55.073Z,83.30
2017-09-14T22:28:22.765Z,83.60
2017-09-14T22:31:01.109Z,83.50
2017-09-14T22:33:43.352Z,83.60
2017-09-14T22:36:13.892Z,83.50
2017-09-14T22:38:43.342Z,82.90
2017-09-14T22:41:10.249Z,83.30
2017-09-14T22:43:37.135Z,83.00
2017-09-14T22:46:04.076Z,82.60
2017-09-14T22:48:31.302Z,82.30
2017-09-14T22:51:00.767Z,82.50
2017-09-14T22:53:28.424Z,82.40
2017-09-14T22:55:55.272Z,82.50
2017-09-14T22:58:22.191Z,82.20
2017-09-14T23:00:49.063Z,81.70
2017-09-14T23:03:19.013Z,81.40
2017-09-14T23:05:49.272Z,81.30
2017-09-14T23:08:17.582Z,81.30
2017-09-14T23:10:47.669Z,81.00
2017-09-14T23:13:16.612Z,80.60
2017-09-14T23:15:44.205Z,81.10
2017-09-14T23:18:14.552Z,81.10
2017-09-14T23:20:43.126Z,81.10
2017-09-14T23:23:12.369Z,81.30
2017-09-14T23:25:41.052Z,81.20
2017-09-14T23:28:10.157Z,81.20
2017-09-14T23:30:39.251Z,81.20
2017-09-14T23:33:08.582Z,81.40
2017-09-14T23:35:38.107Z,81.50
2017-09-14T23:38:05.926Z,81.50
2017-09-14T23:40:35.079Z,81.60
2017-09-14T23:43:02.184Z,81.20
2017-09-14T23:45:29.834Z,81.20
2017-09-14T23:47:56.855Z,81.20
2017-09-14T23:50:23.809Z,81.20
2017-09-14T23:52:50.739Z,80.80
2017-09-14T23:55:20.188Z,80.90
2017-09-14T23:57:47.444Z,81.00
